Time;durP1;ratioP1;P1;durP2;ratioP2;P2;SDS_P1;SDS_P2;PMS_P1;PMS_P2;Temp;Humidity;BMP_temperature;BMP_pressure;BME280_temperature;BME280_humidity;BME280_pressure;Samples;Min_cycle;Max_cycle;Signal;HPM_P1;HPM_P2
2022/12/30 00:00:38;;;;;;;7.43;1.67;;;;;;;5.89;61.34;100208.28;6181555;23;20383;-74
2022/12/30 00:03:05;;;;;;;7.32;2.13;;;;;;;5.89;60.83;100226.91;6181643;23;20052;-76
2022/12/30 00:05:32;;;;;;;7.15;1.63;;;;;;;5.96;60.70;100228.03;6182053;23;20335;-76
2022/12/30 00:07:58;;;;;;;7.07;1.45;;;;;;;5.93;60.87;100231.78;6182272;22;20104;-74
2022/12/30 00:10:25;;;;;;;6.15;1.88;;;;;;;5.93;61.18;100236.28;6182686;23;20032;-75
2022/12/30 00:35:21;;;;;;;12.68;1.55;;;;;;;5.77;62.30;100272.31;6181147;23;20045;-75
2022/12/30 00:37:48;;;;;;;5.88;1.75;;;;;;;6.04;62.23;100270.75;6181336;23;20487;-75
2022/12/30 00:40:18;;;;;;;11.10;1.70;;;;;;;5.98;62.68;100266.00;6181424;23;20021;-74
2022/12/30 00:45:30;;;;;;;7.07;1.63;;;;;;;6.12;62.17;100276.22;6180750;23;20071;-73
2022/12/30 00:47:56;;;;;;;11.05;1.90;;;;;;;5.98;62.64;100280.16;6180688;23;20020;-74
2022/12/30 00:56:14;;;;;;;9.23;1.58;;;;;;;5.75;62.09;100287.56;6210042;23;20028;-74
2022/12/30 00:58:40;;;;;;;5.45;1.40;;;;;;;5.85;62.18;100282.25;6212017;23;20021;-74
2022/12/30 01:01:07;;;;;;;11.73;2.08;;;;;;;5.92;61.66;100285.19;6211505;23;20024;-73
2022/12/30 01:03:34;;;;;;;9.13;2.15;;;;;;;5.62;61.53;100289.66;6208447;23;20012;-73
2022/12/30 01:06:08;;;;;;;13.63;1.88;;;;;;;5.82;60.68;100289.69;6210387;23;20542;-74
2022/12/30 01:08:35;;;;;;;8.45;1.80;;;;;;;5.70;60.66;100292.50;6211021;23;20047;-73
2022/12/30 01:11:06;;;;;;;10.05;1.80;;;;;;;5.58;60.57;100298.06;6210192;23;20035;-75
2022/12/30 01:13:32;;;;;;;8.52;1.83;;;;;;;5.70;59.88;100305.78;6211188;23;20108;-75
2022/12/30 01:16:06;;;;;;;11.85;1.90;;;;;;;5.62;59.88;100304.78;6209835;23;20458;-73
2022/12/30 01:18:33;;;;;;;8.60;1.85;;;;;;;5.67;59.71;100308.72;6184233;23;20020;-74
2022/12/30 01:21:01;;;;;;;11.10;2.13;;;;;;;5.62;59.95;100321.59;6210951;23;20457;-75
2022/12/30 01:23:27;;;;;;;13.32;2.33;;;;;;;5.68;59.61;100321.06;6204267;23;20028;-75
2022/12/30 01:25:58;;;;;;;9.13;1.70;;;;;;;5.79;59.55;100325.41;6211210;23;20029;-76
2022/12/30 01:28:28;;;;;;;6.03;1.23;;;;;;;5.46;59.99;100334.63;6211118;23;20099;-73
2022/12/30 01:30:54;;;;;;;13.18;2.03;;;;;;;5.69;59.70;100341.34;6209738;23;20028;-74
2022/12/30 01:33:21;;;;;;;12.55;1.70;;;;;;;5.39;59.80;100338.78;6210431;23;20024;-73
2022/12/30 01:35:47;;;;;;;12.30;1.95;;;;;;;5.47;59.79;100349.59;6210857;23;20079;-75
2022/12/30 01:38:15;;;;;;;12.02;1.75;;;;;;;5.67;59.49;100347.81;6209652;23;20021;-73
2022/12/30 01:40:42;;;;;;;9.73;1.80;;;;;;;5.39;59.62;100360.06;6210425;23;20028;-75
2022/12/30 01:43:14;;;;;;;10.07;1.60;;;;;;;5.55;59.38;100365.69;6183739;23;20453;-75
2022/12/30 01:45:45;;;;;;;7.10;2.00;;;;;;;5.58;59.05;100376.06;6206984;23;20083;-74
2022/12/30 01:48:20;;;;;;;8.18;1.75;;;;;;;5.42;59.69;100371.28;6209528;23;20027;-73
2022/12/30 01:50:57;;;;;;;9.32;1.95;;;;;;;5.59;59.27;100374.25;6164253;23;20433;-74
2022/12/30 01:53:33;;;;;;;8.75;1.90;;;;;;;5.55;59.67;100378.16;6202446;23;20028;-79
2022/12/30 01:56:26;;;;;;;16.20;2.10;;;;;;;5.41;59.27;100379.38;6195489;23;20055;-76
2022/12/30 01:59:05;;;;;;;10.93;2.50;;;;;;;5.57;58.81;100387.72;6210831;23;20017;-74
2022/12/30 02:01:34;;;;;;;10.57;2.10;;;;;;;5.63;58.54;100399.59;6209175;23;20012;-75
2022/12/30 02:04:04;;;;;;;7.60;1.70;;;;;;;5.46;58.74;100398.47;6210390;23;20092;-74
2022/12/30 02:07:20;;;;;;;13.05;2.30;;;;;;;5.51;58.79;100406.88;6196746;23;20020;-73
2022/12/30 02:09:48;;;;;;;8.05;1.67;;;;;;;5.59;58.54;100408.84;6192351;23;20017;-75
2022/12/30 02:12:14;;;;;;;10.68;1.70;;;;;;;5.53;58.82;100412.91;6194214;23;20466;-74
2022/12/30 02:14:42;;;;;;;13.00;1.92;;;;;;;5.63;58.51;100413.78;6196323;23;20028;-75
2022/12/30 02:17:34;;;;;;;17.00;2.53;;;;;;;5.57;58.77;100419.63;6194621;23;20020;-75
2022/12/30 02:20:11;;;;;;;10.40;1.65;;;;;;;5.68;57.93;100427.50;6210136;23;20048;-75
2022/12/30 02:23:17;;;;;;;9.27;2.17;;;;;;;5.83;57.94;100422.63;6211559;23;20048;-74
2022/12/30 02:25:52;;;;;;;12.98;1.60;;;;;;;5.61;57.87;100434.34;6210618;23;20043;-75
2022/12/30 02:28:33;;;;;;;14.73;3.35;;;;;;;5.69;57.87;100428.34;6208057;23;20020;-74
2022/12/30 02:31:14;;;;;;;16.23;1.92;;;;;;;5.77;57.83;100431.19;6203942;23;20060;-73
2022/12/30 02:34:03;;;;;;;9.63;1.75;;;;;;;5.85;57.63;100435.81;6210844;23;20021;-74
2022/12/30 02:36:57;;;;;;;12.88;1.90;;;;;;;5.62;57.97;100438.69;6155600;23;20044;-73
2022/12/30 02:39:35;;;;;;;15.50;2.85;;;;;;;5.63;57.97;100434.19;6210475;23;20111;-73
2022/12/30 02:45:24;;;;;;;7.25;2.13;;;;;;;5.69;57.80;100426.53;6211070;23;20107;-73
2022/12/30 02:48:15;;;;;;;9.00;1.92;;;;;;;5.76;57.71;100432.16;6208774;23;20021;-73
2022/12/30 02:53:34;;;;;;;14.40;1.80;;;;;;;5.65;58.23;100437.59;6210774;23;20036;-74
2022/12/30 02:56:00;;;;;;;10.23;1.70;;;;;;;5.60;57.99;100443.31;6209623;23;20462;-73
2022/12/30 02:58:31;;;;;;;17.17;2.20;;;;;;;5.95;57.11;100434.88;6210777;23;20091;-73
2022/12/30 03:04:25;;;;;;;8.88;1.80;;;;;;;5.50;58.16;100440.63;6209612;23;20028;-74
2022/12/30 03:07:11;;;;;;;5.88;1.63;;;;;;;5.45;58.59;100439.31;6210180;23;20044;-73
2022/12/30 03:13:25;;;;;;;10.43;2.20;;;;;;;5.49;58.51;100444.28;6210186;23;20017;-75
2022/12/30 03:16:16;;;;;;;15.05;2.15;;;;;;;5.34;58.92;100445.59;6211036;23;20103;-74
2022/12/30 03:18:45;;;;;;;21.05;1.92;;;;;;;5.18;59.11;100446.09;6210583;23;20203;-75
2022/12/30 03:21:11;;;;;;;13.02;2.30;;;;;;;5.28;59.19;100446.97;6212531;23;20099;-74
2022/12/30 03:29:19;;;;;;;6.15;1.52;;;;;;;5.24;59.18;100460.66;6210617;23;20104;-74
2022/12/30 03:31:47;;;;;;;10.50;2.53;;;;;;;5.27;59.29;100465.72;6211619;23;20100;-74
2022/12/30 03:34:14;;;;;;;14.80;3.83;;;;;;;5.03;59.49;100464.16;6211508;23;20400;-74
2022/12/30 03:36:47;;;;;;;15.10;2.50;;;;;;;5.10;59.31;100469.81;6212428;23;20040;-74
2022/12/30 03:39:27;;;;;;;14.05;2.72;;;;;;;5.28;58.98;100462.06;6211341;23;20020;-73
2022/12/30 03:41:54;;;;;;;13.15;2.45;;;;;;;4.88;60.18;100465.47;6211172;23;20065;-73
2022/12/30 03:44:21;;;;;;;13.20;2.20;;;;;;;5.05;59.27;100467.56;6212548;23;20075;-75
2022/12/30 03:46:48;;;;;;;16.38;2.42;;;;;;;4.91;59.90;100480.34;6211002;23;20346;-75
2022/12/30 03:49:15;;;;;;;13.85;1.80;;;;;;;4.88;59.74;100488.56;6209789;23;20024;-73
2022/12/30 03:51:42;;;;;;;20.40;2.88;;;;;;;4.93;59.76;100489.00;6210672;23;20043;-73
2022/12/30 03:54:08;;;;;;;11.32;2.10;;;;;;;5.13;58.93;100490.81;6211466;23;20016;-73
2022/12/30 03:56:35;;;;;;;14.70;2.38;;;;;;;5.20;58.82;100492.00;6222419;23;20500;-75
2022/12/30 03:59:02;;;;;;;10.23;3.05;;;;;;;5.08;59.17;100493.06;6211256;23;20043;-74
2022/12/30 04:01:28;;;;;;;12.68;1.95;;;;;;;5.22;59.05;100495.38;6212311;23;20017;-73
2022/12/30 04:03:55;;;;;;;11.05;2.15;;;;;;;5.15;58.92;100496.03;6210261;23;20067;-75
2022/12/30 04:06:22;;;;;;;11.77;2.55;;;;;;;5.13;59.19;100496.16;6213487;23;20020;-74
2022/12/30 04:08:48;;;;;;;10.88;2.00;;;;;;;5.04;59.46;100496.94;6211926;23;20100;-75
2022/12/30 04:11:15;;;;;;;12.93;2.33;;;;;;;4.96;59.42;100496.72;6212662;23;20017;-74
2022/12/30 04:13:41;;;;;;;10.60;1.88;;;;;;;4.97;59.37;100495.75;6212241;23;20462;-74
2022/12/30 04:16:08;;;;;;;13.25;2.00;;;;;;;4.79;60.06;100492.81;6210769;23;20027;-72
2022/12/30 04:18:35;;;;;;;12.20;2.05;;;;;;;4.85;59.55;100502.13;6210829;23;20043;-74
2022/12/30 04:21:01;;;;;;;10.43;2.00;;;;;;;4.88;59.88;100509.84;6211746;23;20054;-73
2022/12/30 04:23:28;;;;;;;16.55;2.08;;;;;;;4.85;59.91;100513.59;6211732;23;20023;-72
2022/12/30 04:25:54;;;;;;;10.70;2.10;;;;;;;4.83;59.83;100510.19;6211770;23;20067;-72
2022/12/30 04:28:21;;;;;;;14.27;2.40;;;;;;;4.80;59.97;100508.66;6212852;23;20023;-75
2022/12/30 04:30:49;;;;;;;12.90;2.50;;;;;;;4.75;60.20;100520.63;6212945;23;20099;-74
2022/12/30 04:33:16;;;;;;;14.98;2.38;;;;;;;4.70;59.98;100521.03;6212486;23;20047;-74
2022/12/30 04:35:42;;;;;;;20.08;2.83;;;;;;;4.70;59.97;100531.66;6211152;23;20434;-74
2022/12/30 04:38:09;;;;;;;11.60;2.22;;;;;;;4.71;60.37;100524.53;6211580;23;20513;-74
2022/12/30 04:40:35;;;;;;;16.35;2.10;;;;;;;4.69;60.49;100526.44;6208355;23;20040;-74
2022/12/30 04:43:02;;;;;;;14.13;2.45;;;;;;;4.71;60.33;100529.84;6206281;23;20454;-75
2022/12/30 04:45:28;;;;;;;16.83;1.90;;;;;;;4.61;60.72;100534.22;6211206;23;20103;-74
2022/12/30 04:47:55;;;;;;;14.75;2.28;;;;;;;4.58;60.92;100527.34;6210627;23;20092;-73
2022/12/30 04:50:22;;;;;;;16.58;2.50;;;;;;;4.50;61.17;100532.44;6212596;23;20021;-74
2022/12/30 04:52:48;;;;;;;15.98;2.42;;;;;;;4.53;61.18;100534.84;6211606;23;20024;-74
2022/12/30 04:55:15;;;;;;;9.18;1.77;;;;;;;4.42;61.44;100537.56;6211790;23;20019;-73
2022/12/30 04:57:41;;;;;;;17.10;2.28;;;;;;;4.42;61.75;100549.03;6211103;22;20446;-74
2022/12/30 05:00:09;;;;;;;16.33;2.80;;;;;;;4.31;62.07;100547.19;6210820;23;20107;-75
2022/12/30 05:02:36;;;;;;;10.45;1.77;;;;;;;4.24;62.17;100556.63;6212355;23;20024;-75
2022/12/30 05:05:03;;;;;;;11.45;1.95;;;;;;;4.29;62.38;100558.91;6210848;23;20021;-75
2022/12/30 05:07:30;;;;;;;12.07;2.15;;;;;;;4.30;61.99;100560.59;6211193;23;20051;-74
2022/12/30 05:09:56;;;;;;;12.52;2.72;;;;;;;4.36;62.19;100568.06;6212601;23;20020;-74
2022/12/30 05:12:23;;;;;;;10.60;2.03;;;;;;;4.17;62.71;100571.34;6211482;23;20036;-74
2022/12/30 05:14:49;;;;;;;11.13;1.65;;;;;;;4.38;62.32;100578.59;6211048;23;20016;-74
2022/12/30 05:17:16;;;;;;;15.23;2.22;;;;;;;4.19;62.72;100577.38;6207975;23;20103;-74
2022/12/30 05:19:43;;;;;;;20.48;3.25;;;;;;;3.97;63.19;100572.09;6211005;23;20032;-74
2022/12/30 05:22:09;;;;;;;15.50;2.55;;;;;;;4.00;62.98;100580.66;6211171;23;20017;-73
2022/12/30 05:27:20;;;;;;;16.67;2.70;;;;;;;3.97;63.22;100585.38;6210597;23;20027;-75
2022/12/30 05:29:47;;;;;;;20.05;2.05;;;;;;;4.12;62.90;100578.84;6210370;23;20035;-74
2022/12/30 05:32:14;;;;;;;12.45;2.17;;;;;;;3.95;63.31;100589.94;6209704;23;20354;-73
2022/12/30 05:34:40;;;;;;;14.98;1.98;;;;;;;4.05;63.40;100585.59;6211365;23;20070;-74
2022/12/30 05:37:07;;;;;;;13.85;2.40;;;;;;;3.91;63.28;100594.66;6211029;23;20021;-74
2022/12/30 05:39:33;;;;;;;10.80;2.75;;;;;;;4.05;63.10;100588.25;6209948;23;20024;-73
2022/12/30 05:42:00;;;;;;;11.63;2.45;;;;;;;3.74;64.31;100598.63;6208914;23;20028;-73
2022/12/30 05:44:26;;;;;;;11.40;2.08;;;;;;;3.83;63.75;100595.25;6211442;23;20024;-74
2022/12/30 05:46:53;;;;;;;13.55;2.15;;;;;;;3.82;64.09;100604.16;6211251;23;20433;-75
2022/12/30 05:49:20;;;;;;;15.27;2.40;;;;;;;3.76;63.97;100593.19;6210872;23;20449;-74
2022/12/30 05:51:46;;;;;;;11.57;1.80;;;;;;;3.83;63.78;100603.22;6210865;23;20048;-75
2022/12/30 05:54:13;;;;;;;10.48;1.80;;;;;;;3.68;64.06;100607.06;6210956;23;20023;-73
2022/12/30 05:56:39;;;;;;;14.82;1.90;;;;;;;3.81;63.80;100607.78;6209435;23;20016;-73
2022/12/30 05:59:09;;;;;;;16.38;2.50;;;;;;;3.81;63.71;100617.56;6210230;23;20410;-73
2022/12/30 06:01:36;;;;;;;12.40;2.05;;;;;;;3.76;64.32;100619.72;6208047;23;20350;-73
2022/12/30 06:04:03;;;;;;;11.27;2.33;;;;;;;3.62;64.35;100634.06;6210617;23;20031;-73
2022/12/30 06:06:29;;;;;;;9.38;2.10;;;;;;;3.67;64.25;100646.97;6212943;23;20020;-73
2022/12/30 06:08:56;;;;;;;10.75;2.20;;;;;;;3.60;64.25;100644.78;6217541;23;20020;-74
2022/12/30 06:11:22;;;;;;;9.70;1.80;;;;;;;3.61;64.43;100642.97;6209138;23;20445;-74
2022/12/30 06:13:49;;;;;;;11.48;2.22;;;;;;;3.66;64.03;100654.09;6210865;23;20494;-73
2022/12/30 06:16:15;;;;;;;14.80;1.95;;;;;;;3.52;64.51;100664.91;6201299;23;20016;-74
2022/12/30 06:18:42;;;;;;;10.77;1.65;;;;;;;3.57;64.81;100668.03;6211532;23;20020;-73
2022/12/30 06:21:09;;;;;;;13.23;2.13;;;;;;;3.57;64.77;100668.03;6220247;23;20027;-73
2022/12/30 06:23:35;;;;;;;16.35;2.47;;;;;;;3.30;64.86;100671.81;6211303;23;20048;-74
2022/12/30 06:26:02;;;;;;;15.73;2.38;;;;;;;3.47;64.96;100669.69;6210736;23;20092;-72
2022/12/30 06:28:29;;;;;;;16.85;2.88;;;;;;;3.50;64.76;100672.97;6212499;23;20104;-73
2022/12/30 06:30:57;;;;;;;11.27;2.53;;;;;;;3.46;64.80;100673.31;6210406;23;20028;-73
2022/12/30 06:33:24;;;;;;;16.10;2.92;;;;;;;3.45;64.83;100674.25;6210495;23;20020;-74
2022/12/30 06:35:51;;;;;;;14.40;3.58;;;;;;;3.41;65.05;100675.47;6211679;23;20024;-74
2022/12/30 06:38:18;;;;;;;20.00;4.40;;;;;;;3.30;65.47;100676.25;6210830;23;20128;-73
2022/12/30 06:40:44;;;;;;;15.77;3.33;;;;;;;3.23;65.61;100683.81;6211063;23;20484;-75
2022/12/30 06:43:12;;;;;;;17.83;2.83;;;;;;;3.34;65.71;100686.56;6210842;23;20027;-73
2022/12/30 06:45:39;;;;;;;12.65;2.47;;;;;;;3.34;65.46;100685.69;6210770;23;20326;-75
2022/12/30 06:48:06;;;;;;;12.82;2.00;;;;;;;3.31;65.12;100685.94;6210932;23;20035;-73
2022/12/30 06:50:32;;;;;;;16.33;2.03;;;;;;;3.35;65.47;100688.22;6210905;23;20103;-75
2022/12/30 06:52:59;;;;;;;13.25;1.98;;;;;;;3.21;65.42;100695.53;6214174;23;20099;-75
2022/12/30 06:55:25;;;;;;;16.48;2.50;;;;;;;3.18;65.97;100693.94;6214010;23;20084;-74
2022/12/30 06:57:59;;;;;;;16.10;2.03;;;;;;;3.21;66.01;100708.78;6211325;23;20062;-75
2022/12/30 07:00:26;;;;;;;11.82;2.03;;;;;;;3.17;65.73;100712.59;6213195;23;20103;-75
2022/12/30 07:02:52;;;;;;;14.27;2.40;;;;;;;3.17;65.98;100708.16;6212541;23;20346;-74
2022/12/30 07:05:20;;;;;;;13.30;2.42;;;;;;;3.31;65.65;100709.78;6203529;23;20025;-74
2022/12/30 07:07:46;;;;;;;15.82;2.85;;;;;;;3.09;66.27;100710.50;6212372;23;20021;-73
2022/12/30 07:10:13;;;;;;;13.00;2.67;;;;;;;3.12;65.97;100715.59;6210342;23;20466;-74
2022/12/30 07:12:39;;;;;;;12.20;2.20;;;;;;;3.07;66.45;100723.03;6213180;23;20016;-73
2022/12/30 07:15:06;;;;;;;10.15;2.88;;;;;;;3.19;65.98;100727.44;6213051;23;20092;-74
2022/12/30 07:17:33;;;;;;;17.48;2.88;;;;;;;3.14;65.85;100734.91;6212948;23;20027;-74
2022/12/30 07:19:59;;;;;;;15.38;2.40;;;;;;;3.15;65.60;100732.13;6213650;23;20103;-73
2022/12/30 07:22:26;;;;;;;10.10;2.15;;;;;;;3.13;65.83;100736.69;6203455;23;20527;-75
2022/12/30 07:24:52;;;;;;;17.95;2.33;;;;;;;3.24;65.60;100753.59;6212242;23;20048;-75
2022/12/30 07:27:19;;;;;;;21.55;2.88;;;;;;;3.05;66.15;100746.16;6203423;23;20012;-75
2022/12/30 07:29:46;;;;;;;14.57;2.45;;;;;;;3.07;66.13;100747.75;6211930;23;20051;-74
2022/12/30 07:32:12;;;;;;;9.60;2.08;;;;;;;3.03;65.67;100745.41;6211013;23;20020;-74
2022/12/30 07:34:39;;;;;;;16.10;2.45;;;;;;;3.03;66.08;100750.69;6212276;23;20062;-75
2022/12/30 07:37:09;;;;;;;11.68;3.13;;;;;;;3.10;65.62;100750.19;6211470;23;20449;-74
2022/12/30 07:39:35;;;;;;;17.40;2.80;;;;;;;3.14;65.68;100756.94;6212281;23;20100;-74
2022/12/30 07:42:02;;;;;;;13.52;2.92;;;;;;;3.11;65.63;100753.66;6212303;23;20103;-73
2022/12/30 07:44:29;;;;;;;11.90;2.72;;;;;;;2.94;66.48;100759.34;6213095;23;20107;-74
2022/12/30 07:46:55;;;;;;;16.45;2.50;;;;;;;3.00;66.33;100761.56;6212153;23;20433;-74
2022/12/30 07:49:22;;;;;;;15.35;2.53;;;;;;;2.99;66.02;100773.09;6201502;23;20438;-74
2022/12/30 07:51:49;;;;;;;10.73;2.55;;;;;;;2.97;66.46;100770.56;6222075;23;20028;-74
2022/12/30 07:54:16;;;;;;;18.23;2.47;;;;;;;2.88;66.42;100781.81;6211671;23;20021;-74
2022/12/30 07:56:42;;;;;;;18.88;2.80;;;;;;;2.94;66.60;100780.53;6204168;23;20028;-74
2022/12/30 07:59:11;;;;;;;15.10;2.63;;;;;;;2.87;66.22;100778.31;6209116;23;20024;-73
2022/12/30 08:01:38;;;;;;;16.73;3.58;;;;;;;3.00;66.16;100769.50;6211441;23;20028;-74
2022/12/30 08:04:06;;;;;;;12.02;2.80;;;;;;;2.96;65.96;100771.50;6211426;23;20079;-76
2022/12/30 08:06:52;;;;;;;15.43;3.13;;;;;;;2.77;66.64;100789.69;6212112;23;20036;-74
2022/12/30 08:09:18;;;;;;;15.50;3.15;;;;;;;2.79;66.49;100796.56;6211068;23;20400;-75
2022/12/30 08:11:45;;;;;;;16.33;3.05;;;;;;;2.78;66.75;100808.09;6212942;23;20025;-73
2022/12/30 08:14:11;;;;;;;18.05;3.65;;;;;;;2.66;67.12;100801.88;6211541;23;20047;-74
2022/12/30 08:16:38;;;;;;;19.73;3.42;;;;;;;2.76;66.60;100802.09;6212575;23;20298;-75
2022/12/30 08:19:05;;;;;;;17.05;3.40;;;;;;;2.87;66.76;100798.66;6212085;23;20454;-75
2022/12/30 08:21:31;;;;;;;18.65;3.05;;;;;;;2.81;66.66;100789.34;6213168;23;20017;-74
2022/12/30 08:23:57;;;;;;;17.50;3.80;;;;;;;2.79;66.30;100801.88;6212341;23;20095;-73
2022/12/30 08:26:24;;;;;;;14.93;2.55;;;;;;;2.88;66.31;100803.84;6211271;23;20043;-75
2022/12/30 08:28:51;;;;;;;12.60;3.08;;;;;;;2.83;66.95;100800.69;6211891;23;20031;-74
2022/12/30 08:31:22;;;;;;;9.32;2.50;;;;;;;3.00;66.67;100807.44;6211235;23;20021;-74
2022/12/30 08:33:49;;;;;;;17.13;2.73;;;;;;;2.93;65.89;100800.03;6211883;23;20471;-75
2022/12/30 08:36:17;;;;;;;13.02;2.20;;;;;;;2.88;66.45;100803.84;6210218;23;20104;-74
2022/12/30 08:38:48;;;;;;;8.93;2.03;;;;;;;3.00;66.53;100812.75;6211746;23;20476;-74
2022/12/30 08:41:23;;;;;;;13.55;2.70;;;;;;;2.96;66.36;100816.56;6212676;23;20103;-73
2022/12/30 08:43:50;;;;;;;14.93;3.15;;;;;;;2.95;66.36;100819.31;6211683;23;20028;-75
2022/12/30 08:46:18;;;;;;;13.20;2.53;;;;;;;3.20;65.23;100808.66;6210894;23;20444;-74
2022/12/30 08:48:45;;;;;;;33.47;8.00;;;;;;;2.96;66.29;100813.06;6210721;23;20028;-74
2022/12/30 08:51:13;;;;;;;18.23;4.82;;;;;;;3.10;66.04;100807.63;6211826;23;20406;-75
2022/12/30 08:53:40;;;;;;;17.30;4.57;;;;;;;3.09;65.55;100819.19;6211219;23;20071;-74
2022/12/30 08:56:12;;;;;;;25.42;5.35;;;;;;;3.03;66.17;100825.78;6210465;23;20461;-74
2022/12/30 08:58:39;;;;;;;21.95;4.65;;;;;;;3.11;65.53;100825.25;6210206;23;20043;-75
2022/12/30 09:01:11;;;;;;;15.25;4.00;;;;;;;3.28;65.35;100826.69;6213270;23;20393;-75
2022/12/30 09:03:39;;;;;;;14.27;3.70;;;;;;;3.18;65.89;100826.50;6210332;23;20043;-74
2022/12/30 09:06:06;;;;;;;15.32;3.25;;;;;;;3.31;65.38;100822.00;6210610;23;20092;-74
2022/12/30 09:08:32;;;;;;;12.23;2.53;;;;;;;3.14;65.06;100815.25;6211625;23;20016;-75
2022/12/30 09:11:07;;;;;;;21.50;3.63;;;;;;;3.41;65.00;100819.50;6212024;23;20020;-74
2022/12/30 09:13:36;;;;;;;23.63;2.88;;;;;;;3.23;64.99;100828.81;6210259;23;20083;-73
2022/12/30 09:16:09;;;;;;;12.50;2.80;;;;;;;3.45;64.52;100822.78;6211496;23;20031;-75
2022/12/30 09:18:36;;;;;;;13.75;2.97;;;;;;;3.47;64.57;100831.50;6210119;23;20031;-75
2022/12/30 09:21:04;;;;;;;13.32;2.47;;;;;;;3.37;64.76;100831.31;6212377;23;20025;-74
2022/12/30 09:23:30;;;;;;;17.13;2.97;;;;;;;3.51;64.48;100840.91;6212809;23;20027;-73
2022/12/30 09:25:57;;;;;;;14.32;2.55;;;;;;;3.56;64.33;100836.13;6210607;23;20017;-74
2022/12/30 09:28:24;;;;;;;14.07;2.45;;;;;;;3.63;63.85;100832.06;6210359;23;20345;-74
2022/12/30 09:30:50;;;;;;;12.85;2.42;;;;;;;3.75;63.99;100835.63;6208837;23;20024;-74
2022/12/30 09:33:17;;;;;;;19.60;2.70;;;;;;;3.74;63.94;100834.78;6208906;23;20390;-74
2022/12/30 09:35:43;;;;;;;16.77;3.05;;;;;;;3.78;63.84;100828.28;6208956;23;20028;-74
2022/12/30 09:38:10;;;;;;;12.43;2.47;;;;;;;3.84;63.49;100816.38;6210120;23;20020;-74
2022/12/30 09:40:44;;;;;;;10.27;2.25;;;;;;;3.90;63.31;100815.03;6209201;23;20040;-74
2022/12/30 09:43:21;;;;;;;15.00;2.92;;;;;;;4.09;63.03;100818.03;6208998;23;20468;-74
2022/12/30 09:46:03;;;;;;;15.82;2.22;;;;;;;4.09;63.04;100807.41;6209821;23;20021;-74
2022/12/30 09:48:37;;;;;;;8.52;2.28;;;;;;;4.27;62.31;100810.47;6210975;23;20016;-74
2022/12/30 09:51:10;;;;;;;12.52;2.00;;;;;;;4.61;61.54;100814.06;6208920;23;20013;-71
2022/12/30 09:53:40;;;;;;;13.80;2.45;;;;;;;4.77;60.63;100817.22;6209306;23;20027;-74
2022/12/30 09:56:17;;;;;;;11.13;2.05;;;;;;;5.00;59.93;100819.84;6208777;23;20457;-73
2022/12/30 09:58:45;;;;;;;8.85;2.15;;;;;;;5.46;58.48;100816.19;6209291;23;20031;-74
2022/12/30 10:01:49;;;;;;;14.20;2.17;;;;;;;5.80;57.63;100819.56;6206828;23;20027;-74
2022/12/30 10:04:19;;;;;;;13.75;2.60;;;;;;;6.27;56.42;100812.13;6182968;23;20024;-73
2022/12/30 10:06:57;;;;;;;14.57;2.92;;;;;;;6.30;55.59;100808.34;6208542;23;20016;-74
2022/12/30 10:09:45;;;;;;;23.13;3.75;;;;;;;6.61;55.20;100799.41;6208641;23;20023;-74
2022/12/30 10:12:18;;;;;;;15.43;2.40;;;;;;;6.83;54.15;100800.22;6205653;23;20054;-74
2022/12/30 10:15:11;;;;;;;14.38;2.55;;;;;;;7.34;53.14;100807.28;6201885;23;20477;-74
2022/12/30 10:18:24;;;;;;;13.70;3.03;;;;;;;7.85;51.46;100800.91;6208303;22;20024;-74
2022/12/30 10:20:50;;;;;;;;;;;;;;;7.77;51.03;100806.06;6210102;23;20028;-75
2022/12/30 10:23:26;;;;;;;11.55;2.55;;;;;;;7.74;51.00;100791.16;6206266;23;19916;-77
2022/12/30 10:26:10;;;;;;;12.55;2.95;;;;;;;8.27;50.18;100796.06;6209978;23;20052;-75
2022/12/30 10:28:45;;;;;;;14.13;2.78;;;;;;;8.07;50.05;100792.59;6210095;23;20016;-73
2022/12/30 10:31:21;;;;;;;10.95;2.40;;;;;;;8.14;50.15;100796.38;6211846;23;20091;-74
2022/12/30 10:33:51;;;;;;;15.70;2.28;;;;;;;7.83;50.21;100792.16;6211747;23;20029;-74
2022/12/30 10:36:26;;;;;;;12.15;3.25;;;;;;;7.65;51.38;100786.66;6198079;23;20449;-74
2022/12/30 10:39:05;;;;;;;15.15;2.58;;;;;;;7.74;51.17;100790.31;6210318;23;20044;-75
2022/12/30 10:41:37;;;;;;;18.73;2.60;;;;;;;7.85;50.90;100783.03;6211691;23;20040;-74
2022/12/30 10:44:34;;;;;;;14.25;2.33;;;;;;;7.99;50.60;100780.94;6208335;23;20027;-75
2022/12/30 10:47:26;;;;;;;13.18;2.28;;;;;;;7.84;50.50;100776.00;6210974;23;20497;-74
2022/12/30 10:50:20;;;;;;;10.05;2.47;;;;;;;7.72;50.80;100781.59;6208330;23;20031;-74
2022/12/30 10:52:46;;;;;;;14.80;2.28;;;;;;;8.29;49.58;100782.56;6209463;23;20024;-73
2022/12/30 10:55:19;;;;;;;8.55;2.13;;;;;;;7.86;50.48;100762.50;6210696;23;20183;-75
2022/12/30 10:57:48;;;;;;;9.55;2.45;;;;;;;7.82;50.60;100759.25;6210191;23;20020;-74
2022/12/30 11:00:16;;;;;;;16.17;3.00;;;;;;;7.51;51.01;100763.88;6210908;23;20020;-74
2022/12/30 11:02:53;;;;;;;12.32;2.30;;;;;;;8.09;50.26;100766.56;6209939;23;20103;-74
2022/12/30 11:05:38;;;;;;;10.27;2.42;;;;;;;8.44;49.69;100764.25;6209917;23;20087;-75
2022/12/30 11:08:19;;;;;;;14.63;2.78;;;;;;;8.83;48.75;100763.09;6199925;23;20152;-75
2022/12/30 11:11:03;;;;;;;16.75;2.35;;;;;;;8.56;48.66;100755.88;6209207;23;20412;-74
2022/12/30 11:16:22;;;;;;;15.43;2.50;;;;;;;8.20;48.65;100744.19;6211411;23;20016;-73
2022/12/30 11:18:49;;;;;;;17.83;2.53;;;;;;;8.03;49.37;100739.59;6210503;23;20028;-73
2022/12/30 11:21:27;;;;;;;13.10;2.30;;;;;;;8.24;48.90;100737.56;6211755;23;20020;-75
2022/12/30 11:23:56;;;;;;;12.90;2.55;;;;;;;8.01;49.34;100737.03;6211563;23;20044;-74
2022/12/30 11:26:25;;;;;;;14.77;2.65;;;;;;;7.74;49.52;100731.56;6211421;23;20040;-74
2022/12/30 11:28:56;;;;;;;10.00;1.77;;;;;;;8.04;49.40;100734.09;6211431;23;20032;-73
2022/12/30 11:31:32;;;;;;;10.10;2.20;;;;;;;8.04;49.62;100733.25;6211233;23;20418;-74
2022/12/30 11:34:02;;;;;;;16.35;2.00;;;;;;;7.78;50.11;100735.66;6211458;23;20082;-75
2022/12/30 11:36:28;;;;;;;16.10;3.17;;;;;;;7.86;49.71;100738.47;6205807;23;20092;-78
2022/12/30 11:39:15;;;;;;;15.30;2.97;;;;;;;7.77;50.06;100739.28;6210890;23;20099;-75
2022/12/30 11:41:47;;;;;;;14.63;2.40;;;;;;;7.70;50.31;100733.66;6189865;23;20031;-74
2022/12/30 11:44:19;;;;;;;13.77;2.65;;;;;;;7.55;50.40;100740.44;6212007;23;20112;-73
2022/12/30 11:47:01;;;;;;;14.10;2.38;;;;;;;7.58;50.11;100735.66;6210361;23;20075;-74
2022/12/30 11:49:30;;;;;;;15.32;2.28;;;;;;;8.21;49.26;100731.66;6210858;23;20091;-74
2022/12/30 11:52:06;;;;;;;11.75;2.03;;;;;;;8.31;49.00;100735.16;6208472;23;20032;-74
2022/12/30 11:54:38;;;;;;;19.85;3.10;;;;;;;8.75;48.44;100728.25;6211876;23;20020;-74
2022/12/30 11:57:32;;;;;;;9.88;2.15;;;;;;;7.98;49.48;100720.44;6208331;23;20052;-74
2022/12/30 12:00:05;;;;;;;11.88;2.45;;;;;;;8.09;49.39;100725.66;6211020;23;20025;-74
2022/12/30 12:02:35;;;;;;;17.80;3.05;;;;;;;7.98;49.53;100717.78;6210839;23;20021;-74
2022/12/30 12:05:22;;;;;;;12.10;2.22;;;;;;;7.78;49.82;100706.28;6210804;23;20354;-74
2022/12/30 12:07:56;;;;;;;15.13;2.50;;;;;;;7.81;49.40;100713.97;6211352;23;20024;-73
2022/12/30 12:10:30;;;;;;;21.52;2.78;;;;;;;7.87;49.72;100708.09;6211471;23;20020;-74
2022/12/30 12:13:06;;;;;;;14.65;2.70;;;;;;;7.73;49.50;100700.50;6211458;23;20031;-74
2022/12/30 12:15:42;;;;;;;13.75;2.75;;;;;;;8.16;49.19;100709.84;6210898;23;20103;-74
2022/12/30 12:18:19;;;;;;;20.00;3.00;;;;;;;7.99;49.76;100687.44;6210864;23;20078;-74
2022/12/30 12:20:46;;;;;;;14.60;2.63;;;;;;;7.82;49.57;100695.16;6210473;23;20099;-75
2022/12/30 12:23:29;;;;;;;14.77;3.33;;;;;;;7.53;51.04;100694.31;6206224;23;20027;-72
2022/12/30 12:26:24;;;;;;;10.57;2.28;;;;;;;7.35;50.87;100692.34;6212242;23;20411;-73
2022/12/30 12:28:56;;;;;;;19.83;2.25;;;;;;;7.39;51.27;100684.91;6211165;23;20466;-75
2022/12/30 12:31:39;;;;;;;;;;;;;;;7.67;50.61;100691.22;6211019;23;20418;-75
2022/12/30 12:34:37;;;;;;;10.68;2.50;;;;;;;7.63;50.88;100687.16;6180853;23;19916;-73
2022/12/30 12:37:09;;;;;;;12.90;2.60;;;;;;;7.41;51.41;100683.78;6180227;23;20021;-73
2022/12/30 12:39:55;;;;;;;12.68;2.65;;;;;;;7.94;50.21;100682.50;6180929;23;20398;-74